createdAt,value
2022-10-10T13:05:08.274Z,93.30
2022-10-10T13:09:28.088Z,96.60
2022-10-10T13:13:33.496Z,96.80
2022-10-10T13:17:41.637Z,97.10
2022-10-10T13:21:43.562Z,97.30
2022-10-10T13:25:46.365Z,97.40
2022-10-10T13:29:48.517Z,97.40
2022-10-10T13:33:50.554Z,97.60
2022-10-10T13:37:57.011Z,97.80
2022-10-10T13:41:59.508Z,98.10
2022-10-10T13:46:03.825Z,98.10
2022-10-10T13:50:24.964Z,98.30
2022-10-10T13:54:47.445Z,98.40
2022-10-10T13:58:53.982Z,98.60
2022-10-10T14:02:55.935Z,98.70
2022-10-10T14:07:03.649Z,98.90
2022-10-10T14:11:08.579Z,98.90
2022-10-10T14:15:49.857Z,99.00
2022-10-10T14:19:52.672Z,99.10
2022-10-10T14:23:54.603Z,99.20
2022-10-10T14:27:56.545Z,99.40
2022-10-10T14:31:58.488Z,99.40
2022-10-10T14:36:00.794Z,99.60
2022-10-10T14:40:03.101Z,99.60
2022-10-10T14:44:05.301Z,99.80
2022-10-10T14:48:07.839Z,99.90
2022-10-10T14:52:09.729Z,99.40
2022-10-10T14:56:13.143Z,99.90
2022-10-10T15:00:18.981Z,99.90
2022-10-10T15:04:20.900Z,99.90
2022-10-10T15:08:22.819Z,99.90
2022-10-10T15:12:24.765Z,99.90
2022-10-10T15:16:26.953Z,99.90
2022-10-10T15:20:32.357Z,99.90
2022-10-10T15:24:34.656Z,99.90
2022-10-10T15:28:36.743Z,99.90
2022-10-10T15:32:39.868Z,99.90
2022-10-10T15:36:41.803Z,99.90
2022-10-10T15:40:43.719Z,99.90
2022-10-10T15:44:47.216Z,99.90
2022-10-10T15:48:49.193Z,99.90
2022-10-10T15:52:51.088Z,99.90
2022-10-10T15:56:53.025Z,99.90
2022-10-10T16:00:54.969Z,99.90
2022-10-10T16:04:56.909Z,99.90
2022-10-10T16:09:23.428Z,99.90
2022-10-10T16:13:20.832Z,99.90
2022-10-10T16:17:23.812Z,99.90
2022-10-10T16:21:26.770Z,99.90
2022-10-10T16:25:28.717Z,99.90
2022-10-10T16:29:30.644Z,99.90
2022-10-10T16:33:33.977Z,99.90
2022-10-10T16:37:35.905Z,99.90
2022-10-10T16:41:53.183Z,99.90
2022-10-10T16:45:55.147Z,99.90
2022-10-10T16:49:57.128Z,99.90
2022-10-10T16:54:02.789Z,99.90
2022-10-10T16:58:04.721Z,99.90
2022-10-10T17:02:06.711Z,99.90
2022-10-10T17:06:13.185Z,99.90
2022-10-10T17:10:15.117Z,99.90
2022-10-10T17:14:17.074Z,99.90
2022-10-10T17:18:19.701Z,99.90
2022-10-10T17:22:21.636Z,99.90
2022-10-10T17:26:23.994Z,99.90
2022-10-10T17:30:25.968Z,99.90
2022-10-10T17:34:27.832Z,99.90
2022-10-10T17:38:39.700Z,99.90
2022-10-10T17:42:42.120Z,99.90
2022-10-10T17:46:45.256Z,99.90
2022-10-10T17:50:47.497Z,99.90
2022-10-10T17:54:49.546Z,99.90
2022-10-10T17:58:51.574Z,99.90
2022-10-10T18:02:53.496Z,99.90
2022-10-10T18:06:55.466Z,99.90
2022-10-10T18:10:57.364Z,99.90
2022-10-10T18:15:02.227Z,99.90
2022-10-10T18:19:05.839Z,99.90
2022-10-10T18:23:07.737Z,99.90
2022-10-10T18:27:09.662Z,99.90
2022-10-10T18:31:21.091Z,99.90
2022-10-10T18:35:23.131Z,99.90
2022-10-10T18:39:28.287Z,99.90
2022-10-10T18:43:33.441Z,99.90
2022-10-10T18:47:35.382Z,99.90
2022-10-10T18:51:41.363Z,99.90
2022-10-10T18:55:43.293Z,99.90
2022-10-10T18:59:45.220Z,99.90
2022-10-10T19:03:47.154Z,99.90
2022-10-10T19:07:49.097Z,99.90
2022-10-10T19:11:53.344Z,99.90
2022-10-10T19:15:55.830Z,99.90
2022-10-10T19:19:57.759Z,99.90
2022-10-10T19:24:01.169Z,99.90
2022-10-10T19:28:03.071Z,99.90
2022-10-10T19:32:05.149Z,99.90
2022-10-10T19:36:12.351Z,99.90
2022-10-10T19:40:14.238Z,99.90
2022-10-10T19:44:16.126Z,99.90
2022-10-10T19:48:19.805Z,99.90
2022-10-10T19:52:22.367Z,99.90
2022-10-10T19:56:25.803Z,99.90
2022-10-10T20:00:27.713Z,99.90
2022-10-10T20:04:29.621Z,99.90
2022-10-10T20:08:31.988Z,99.90
2022-10-10T20:12:34.674Z,99.90
2022-10-10T20:16:36.596Z,99.90
2022-10-10T20:20:43.106Z,99.90
2022-10-10T20:24:45.096Z,99.90
2022-10-10T20:28:47.420Z,99.90
2022-10-10T20:32:49.409Z,99.90
2022-10-10T20:36:51.277Z,99.90
2022-10-10T20:40:53.256Z,99.90
2022-10-10T20:44:55.233Z,99.90
2022-10-10T20:48:58.629Z,99.90
2022-10-10T20:53:00.604Z,99.90
2022-10-10T20:57:02.537Z,99.90
2022-10-10T21:01:10.572Z,99.90
2022-10-10T21:05:12.512Z,99.90
2022-10-10T21:09:15.769Z,99.90
2022-10-10T21:13:17.699Z,99.90
2022-10-10T21:17:19.559Z,99.90
2022-10-10T21:21:21.723Z,99.90
2022-10-10T21:25:23.592Z,99.90
2022-10-10T21:29:25.522Z,99.90
2022-10-10T21:33:27.564Z,99.90
2022-10-10T21:37:30.578Z,99.90
2022-10-10T21:41:32.750Z,99.90
2022-10-10T21:45:35.925Z,99.90
2022-10-10T21:49:37.895Z,99.90
2022-10-10T21:53:39.790Z,99.90
2022-10-10T21:57:41.693Z,99.90
2022-10-10T22:01:44.581Z,99.90
2022-10-10T22:05:46.535Z,99.90
2022-10-10T22:09:48.406Z,99.90
2022-10-10T22:13:50.793Z,99.90
2022-10-10T22:17:53.048Z,99.90
2022-10-10T22:21:54.915Z,99.90
2022-10-10T22:25:57.013Z,99.90
2022-10-10T22:29:58.869Z,99.90
2022-10-10T22:34:01.023Z,99.90
2022-10-10T22:38:03.155Z,99.90
2022-10-10T22:42:05.402Z,99.90
2022-10-10T22:46:08.127Z,99.90
2022-10-10T22:50:11.004Z,99.90
2022-10-10T22:54:13.936Z,99.90
2022-10-10T22:58:15.854Z,99.90
2022-10-10T23:02:17.696Z,99.90
2022-10-10T23:06:19.539Z,99.90
2022-10-10T23:10:21.581Z,99.90
2022-10-10T23:14:23.463Z,99.90
2022-10-10T23:18:25.433Z,99.90
2022-10-10T23:22:27.346Z,99.90
2022-10-10T23:26:29.238Z,99.90
2022-10-10T23:30:31.141Z,99.90
2022-10-10T23:34:33.131Z,99.90
2022-10-10T23:38:35.154Z,99.90
2022-10-10T23:42:37.077Z,99.90
2022-10-10T23:46:39.101Z,99.90
2022-10-10T23:50:41.162Z,99.90
2022-10-10T23:54:43.072Z,99.90
2022-10-10T23:58:45.015Z,99.90
